Terminal Aerodrome Forecast
Issued by NWS Newport/Morehead City, NC

Current Version | Previous Version | Text Only | Print | Product List | Glossary On
Versions: 1 2 3 4 5 6 7 8 9 10 11 12 13 14 15
512
FTUS42 KMHX 302339
TAFEWN
TAF
KEWN 302339Z 0100/0124 VRB03KT P6SM SCT040 BKN100
     FM010700 VRB02KT 3SM BR VCSH SCT007 BKN040
     FM011200 18006KT P6SM BKN050=

USA.gov is the U.S. government's official web portal to all federal, state and local government web resources and services.